Time;durP1;ratioP1;P1;durP2;ratioP2;P2;SDS_P1;SDS_P2;PMS_P1;PMS_P2;Temp;Humidity;BMP_temperature;BMP_pressure;BME280_temperature;BME280_humidity;BME280_pressure;Samples;Min_cycle;Max_cycle;Signal;HPM_P1;HPM_P2
2023/05/08 00:00:29;;;;;;;12.70;11.40;;;14.70;99.90;;;;;;5090416;28;20035;-76
2023/05/08 00:02:55;;;;;;;12.95;11.65;;;14.50;99.90;;;;;;5075199;28;20036;-75
2023/05/08 00:05:21;;;;;;;13.93;10.73;;;14.50;99.90;;;;;;5071558;28;20384;-74
2023/05/08 00:07:47;;;;;;;13.68;10.82;;;14.50;99.90;;;;;;5071738;28;20576;-77
2023/05/08 00:10:15;;;;;;;13.93;12.15;;;14.70;99.90;;;;;;5090439;28;20036;-76
2023/05/08 00:12:41;;;;;;;13.48;11.68;;;14.30;99.90;;;;;;5067333;28;20043;-76
2023/05/08 00:15:08;;;;;;;11.45;9.68;;;14.50;99.90;;;;;;5039259;28;20379;-75
2023/05/08 00:17:34;;;;;;;12.88;11.52;;;14.30;99.90;;;;;;5072833;28;20043;-78
2023/05/08 00:19:59;;;;;;;12.45;11.15;;;14.50;99.90;;;;;;5070961;28;20036;-73
2023/05/08 00:22:25;;;;;;;13.52;12.13;;;14.50;99.90;;;;;;5070539;28;20040;-76
2023/05/08 00:24:51;;;;;;;12.85;11.50;;;14.50;99.90;;;;;;5054392;28;20036;-79
2023/05/08 00:27:16;;;;;;;12.75;11.45;;;14.40;99.90;;;;;;5071582;28;20042;-76
2023/05/08 00:29:42;;;;;;;13.43;12.05;;;14.20;99.90;;;;;;5073238;28;20876;-75
2023/05/08 00:32:08;;;;;;;13.32;11.88;;;14.30;99.90;;;;;;5089808;28;20438;-75
2023/05/08 00:34:35;;;;;;;14.25;12.35;;;14.40;99.90;;;;;;5086649;28;20036;-77
2023/05/08 00:37:01;;;;;;;12.77;10.98;;;14.10;99.90;;;;;;5073172;28;20055;-76
2023/05/08 00:39:27;;;;;;;13.60;12.20;;;14.10;99.90;;;;;;5072861;28;20046;-72
2023/05/08 00:41:53;;;;;;;16.58;12.77;;;14.30;99.90;;;;;;5066420;28;20056;-79
2023/05/08 00:44:18;;;;;;;12.95;11.40;;;14.10;99.90;;;;;;5084918;28;20093;-74
2023/05/08 00:46:45;;;;;;;13.40;10.75;;;14.30;99.90;;;;;;5088735;28;20126;-75
2023/05/08 00:49:13;;;;;;;13.73;12.02;;;14.40;99.90;;;;;;5072899;28;20039;-76
2023/05/08 00:51:51;;;;;;;14.05;12.15;;;14.00;99.90;;;;;;5090186;28;20040;-77
2023/05/08 00:54:18;;;;;;;15.65;11.90;;;14.10;99.90;;;;;;5088941;28;20046;-76
2023/05/08 00:56:44;;;;;;;13.68;11.75;;;14.30;99.90;;;;;;5076618;28;20380;-74
2023/05/08 00:59:15;;;;;;;13.75;11.52;;;14.10;99.90;;;;;;5072375;28;20039;-80
2023/05/08 01:01:42;;;;;;;13.48;12.18;;;14.20;99.90;;;;;;5088322;28;20392;-79
2023/05/08 01:04:08;;;;;;;14.02;12.38;;;14.20;99.90;;;;;;5071468;28;20044;-76
2023/05/08 01:06:35;;;;;;;15.40;13.18;;;14.00;99.90;;;;;;5071715;28;20040;-75
2023/05/08 01:09:03;;;;;;;12.77;11.05;;;14.20;99.90;;;;;;5051385;28;20122;-76
2023/05/08 01:11:36;;;;;;;12.98;10.98;;;14.00;99.90;;;;;;5052344;28;20124;-78
2023/05/08 01:14:27;;;;;;;11.50;10.30;;;14.20;99.90;;;;;;5072259;28;20055;-75
2023/05/08 01:17:35;;;;;;;12.85;11.35;;;14.10;99.90;;;;;;5069918;28;20066;-74
2023/05/08 01:20:07;;;;;;;14.48;12.43;;;14.20;99.90;;;;;;5084251;28;20721;-80
2023/05/08 01:22:36;;;;;;;13.05;11.68;;;14.10;99.90;;;;;;5070988;28;20054;-73
2023/05/08 01:25:26;;;;;;;13.10;11.70;;;14.20;99.90;;;;;;5072961;28;20050;-78
2023/05/08 01:28:30;;;;;;;15.10;12.13;;;14.00;99.90;;;;;;5085278;28;20036;-79
2023/05/08 01:31:03;;;;;;;14.57;11.80;;;14.30;99.90;;;;;;5084568;28;20071;-78
2023/05/08 01:33:37;;;;;;;14.40;11.77;;;14.20;99.90;;;;;;5063046;28;20117;-78
2023/05/08 01:36:16;;;;;;;13.90;10.20;;;13.80;99.90;;;;;;5087432;28;20036;-79
2023/05/08 01:38:55;;;;;;;12.00;10.68;;;14.00;99.90;;;;;;5070395;28;20439;-79
2023/05/08 01:41:32;;;;;;;13.55;12.10;;;14.10;99.90;;;;;;5073365;28;20059;-75
2023/05/08 01:44:23;;;;;;;15.27;12.98;;;13.80;99.90;;;;;;5084834;28;20036;-74
2023/05/08 01:46:50;;;;;;;12.10;9.88;;;14.10;99.90;;;;;;5064824;28;20047;-80
2023/05/08 01:49:40;;;;;;;13.25;11.30;;;13.80;99.90;;;;;;5071540;28;20799;-78
2023/05/08 01:52:13;;;;;;;13.48;11.68;;;13.80;99.90;;;;;;5081205;28;20036;-81
2023/05/08 01:54:45;;;;;;;13.93;11.48;;;13.80;99.90;;;;;;5083552;28;20092;-75
2023/05/08 01:57:13;;;;;;;13.55;10.55;;;13.80;99.90;;;;;;5081750;28;20048;-75
2023/05/08 01:59:41;;;;;;;13.50;11.70;;;13.80;99.90;;;;;;5087064;28;20044;-73
2023/05/08 02:02:09;;;;;;;14.10;11.20;;;13.70;99.90;;;;;;5065614;28;20055;-78
2023/05/08 02:04:40;;;;;;;13.00;10.77;;;13.70;99.90;;;;;;5050696;28;20096;-75
2023/05/08 02:07:06;;;;;;;15.32;13.05;;;13.80;99.90;;;;;;5086004;28;20044;-73
2023/05/08 02:09:33;;;;;;;15.93;12.02;;;13.60;99.90;;;;;;5066762;28;21697;-74
2023/05/08 02:12:01;;;;;;;16.05;13.30;;;13.80;99.90;;;;;;5084340;28;20928;-79
2023/05/08 02:14:28;;;;;;;15.60;13.30;;;13.50;99.90;;;;;;5067800;28;20048;-77
2023/05/08 02:16:56;;;;;;;14.40;11.63;;;13.80;99.90;;;;;;5080928;28;20517;-73
2023/05/08 02:19:24;;;;;;;13.68;12.18;;;13.60;99.90;;;;;;5080986;28;20538;-74
2023/05/08 02:21:51;;;;;;;15.43;13.00;;;13.50;99.90;;;;;;5076128;28;20092;-75
2023/05/08 02:24:19;;;;;;;14.88;12.25;;;13.90;99.90;;;;;;5076141;28;20087;-79
2023/05/08 02:26:46;;;;;;;13.15;11.50;;;13.60;99.90;;;;;;5066751;28;20114;-73
2023/05/08 02:29:13;;;;;;;14.65;12.10;;;13.50;99.90;;;;;;5068444;28;20038;-76
2023/05/08 02:31:40;;;;;;;14.98;13.38;;;13.50;99.90;;;;;;5104433;27;20046;-76
2023/05/08 02:34:09;;;;;;;16.20;12.90;;;13.40;99.90;;;;;;5089628;28;20028;-79
2023/05/08 02:36:38;;;;;;;16.73;13.25;;;13.50;99.90;;;;;;5073141;28;20040;-75
2023/05/08 02:39:06;;;;;;;15.45;13.15;;;13.30;99.90;;;;;;5088320;28;20042;-76
2023/05/08 02:41:33;;;;;;;15.68;13.23;;;13.60;99.90;;;;;;5067449;28;20040;-77
2023/05/08 02:43:59;;;;;;;14.60;12.70;;;13.40;99.90;;;;;;5087218;28;20055;-76
2023/05/08 02:46:31;;;;;;;16.02;13.18;;;13.30;99.90;;;;;;5067635;28;20047;-76
2023/05/08 02:49:11;;;;;;;13.52;12.13;;;13.30;99.90;;;;;;5086243;28;20062;-76
2023/05/08 02:51:43;;;;;;;14.93;13.10;;;13.40;99.90;;;;;;5087030;28;20036;-76
2023/05/08 02:54:32;;;;;;;14.75;13.18;;;13.20;99.90;;;;;;5102594;28;20052;-79
2023/05/08 02:57:09;;;;;;;16.85;13.60;;;13.40;99.90;;;;;;5063310;28;20119;-74
2023/05/08 02:59:38;;;;;;;15.93;14.18;;;13.30;99.90;;;;;;5081597;28;20101;-72
2023/05/08 03:02:13;;;;;;;15.63;13.15;;;13.40;99.90;;;;;;5084703;28;20036;-76
2023/05/08 03:04:42;;;;;;;;;;;13.10;99.90;;;;;;5088299;28;20044;-76
2023/05/08 03:07:08;;;;;;;15.23;12.52;;;13.30;99.90;;;;;;5068280;28;20276;-75
2023/05/08 03:09:52;;;;;;;15.55;13.30;;;13.20;99.90;;;;;;5050568;28;20044;-73
2023/05/08 03:12:23;;;;;;;15.07;13.30;;;13.20;99.90;;;;;;5068572;28;20040;-78
2023/05/08 03:15:18;;;;;;;15.50;13.63;;;13.40;99.90;;;;;;5087669;28;20115;-78
2023/05/08 03:17:46;;;;;;;15.85;13.57;;;13.10;99.90;;;;;;5094459;28;20399;-78
2023/05/08 03:20:16;;;;;;;16.25;12.77;;;13.00;99.90;;;;;;5068901;28;20028;-76
2023/05/08 03:22:43;;;;;;;16.00;13.40;;;13.00;99.90;;;;;;5069710;28;20080;-75
2023/05/08 03:25:10;;;;;;;15.70;13.02;;;13.20;99.90;;;;;;5082735;28;20040;-77
2023/05/08 03:27:36;;;;;;;15.75;14.10;;;13.20;99.90;;;;;;5086979;28;20036;-77
2023/05/08 03:30:04;;;;;;;14.27;12.32;;;13.00;99.90;;;;;;5066347;28;20059;-75
2023/05/08 03:32:32;;;;;;;15.60;13.40;;;13.30;99.90;;;;;;5078486;28;20501;-76
2023/05/08 03:34:59;;;;;;;15.43;13.65;;;13.20;99.90;;;;;;5086542;28;20051;-82
2023/05/08 03:37:28;;;;;;;14.82;12.48;;;13.00;99.90;;;;;;5069897;28;20056;-77
2023/05/08 03:39:55;;;;;;;15.30;13.30;;;12.80;99.90;;;;;;5069685;28;20040;-74
2023/05/08 03:42:23;;;;;;;15.48;12.90;;;12.90;99.90;;;;;;5068600;28;20052;-74
2023/05/08 03:44:51;;;;;;;15.60;13.20;;;13.00;99.90;;;;;;5049684;28;20045;-77
2023/05/08 03:47:17;;;;;;;14.38;12.57;;;13.00;99.90;;;;;;5063707;28;20418;-76
2023/05/08 03:49:49;;;;;;;13.77;12.32;;;12.90;99.90;;;;;;5067307;28;20115;-72
2023/05/08 03:52:17;;;;;;;15.85;12.75;;;12.90;99.90;;;;;;5044581;28;20040;-80
2023/05/08 03:54:43;;;;;;;14.93;12.45;;;13.10;99.90;;;;;;5079597;28;20036;-76
2023/05/08 03:57:09;;;;;;;14.32;12.10;;;13.10;99.90;;;;;;5067361;28;20517;-72
2023/05/08 03:59:48;;;;;;;15.02;13.52;;;12.70;99.90;;;;;;5067968;28;20046;-77
2023/05/08 04:02:27;;;;;;;14.85;12.00;;;12.90;99.90;;;;;;5067509;28;20729;-78
2023/05/08 04:05:01;;;;;;;15.63;13.27;;;12.80;99.90;;;;;;5063994;28;20095;-75
2023/05/08 04:07:46;;;;;;;15.17;13.10;;;13.00;99.90;;;;;;5065050;28;20040;-75
2023/05/08 04:10:31;;;;;;;13.65;11.50;;;12.80;99.90;;;;;;5064765;28;20074;-79
2023/05/08 04:13:08;;;;;;;;;;;12.80;99.90;;;;;;5080707;28;21953;-72
2023/05/08 04:15:38;;;;;;;13.57;12.18;;;12.80;99.90;;;;;;5096593;28;20414;-78
2023/05/08 04:18:13;;;;;;;13.50;11.98;;;13.00;99.90;;;;;;5081316;28;20036;-77
2023/05/08 04:20:40;;;;;;;15.13;12.25;;;12.60;99.90;;;;;;5060051;28;20048;-81
2023/05/08 04:23:08;;;;;;;14.27;11.40;;;12.80;99.90;;;;;;5063548;28;20082;-77
2023/05/08 04:25:38;;;;;;;13.40;11.93;;;13.00;99.90;;;;;;5082151;28;20119;-76
2023/05/08 04:28:04;;;;;;;14.40;11.98;;;12.80;99.90;;;;;;5081773;28;20055;-82
2023/05/08 04:30:30;;;;;;;13.13;11.15;;;12.80;99.90;;;;;;5082790;28;20040;-76
2023/05/08 04:32:58;;;;;;;13.23;11.88;;;12.80;99.90;;;;;;5065668;28;20036;-77
2023/05/08 04:35:24;;;;;;;13.07;11.70;;;13.10;99.90;;;;;;5048078;28;20523;-77
2023/05/08 04:37:50;;;;;;;13.00;10.75;;;13.00;99.90;;;;;;5070746;28;20101;-75
2023/05/08 04:40:16;;;;;;;12.55;11.05;;;12.70;99.90;;;;;;5070417;28;20710;-75
2023/05/08 04:42:42;;;;;;;12.05;10.50;;;13.00;99.90;;;;;;5050422;28;20060;-76
2023/05/08 04:45:09;;;;;;;12.50;11.23;;;13.10;99.90;;;;;;5082702;28;20048;-74
2023/05/08 04:47:34;;;;;;;13.57;11.07;;;13.00;99.90;;;;;;5071598;28;20051;-77
2023/05/08 04:50:01;;;;;;;13.38;12.00;;;12.90;99.90;;;;;;5067976;28;20071;-78
2023/05/08 04:52:26;;;;;;;12.57;11.25;;;13.10;99.90;;;;;;5070954;28;20040;-74
2023/05/08 04:54:52;;;;;;;12.75;11.50;;;12.90;99.90;;;;;;5068362;28;20031;-76
2023/05/08 04:57:18;;;;;;;13.40;11.43;;;13.20;99.90;;;;;;5066042;28;20397;-75
2023/05/08 04:59:44;;;;;;;13.52;12.13;;;13.10;99.90;;;;;;5051151;28;20035;-76
2023/05/08 05:02:09;;;;;;;13.43;12.02;;;13.00;99.90;;;;;;5083663;28;20032;-75
2023/05/08 05:04:35;;;;;;;13.90;12.43;;;13.00;99.90;;;;;;5066992;28;20040;-73
2023/05/08 05:07:02;;;;;;;13.73;11.88;;;13.10;99.90;;;;;;5089904;28;20374;-76
2023/05/08 05:09:28;;;;;;;13.75;12.13;;;13.20;99.90;;;;;;5071278;28;20040;-74
2023/05/08 05:11:54;;;;;;;13.93;12.48;;;13.10;99.90;;;;;;5088836;28;20579;-73
2023/05/08 05:14:20;;;;;;;14.55;12.73;;;13.40;99.90;;;;;;5087778;28;20044;-70
2023/05/08 05:16:46;;;;;;;13.73;12.32;;;13.50;99.90;;;;;;5087024;28;20032;-75
2023/05/08 05:19:12;;;;;;;13.40;11.73;;;13.40;99.90;;;;;;5095581;28;20042;-74
2023/05/08 05:21:38;;;;;;;12.15;10.85;;;13.10;99.90;;;;;;5084832;28;20571;-78
2023/05/08 05:24:04;;;;;;;13.43;11.85;;;13.60;99.90;;;;;;5067001;28;20047;-78
2023/05/08 05:26:30;;;;;;;13.23;10.93;;;13.20;99.90;;;;;;5085836;28;20747;-75
2023/05/08 05:28:57;;;;;;;13.88;12.00;;;13.40;99.90;;;;;;5097489;28;20070;-74
2023/05/08 05:31:23;;;;;;;13.70;11.95;;;13.60;99.90;;;;;;5070729;28;20715;-74
2023/05/08 05:33:48;;;;;;;14.13;11.27;;;13.60;99.90;;;;;;5086366;28;20149;-73
2023/05/08 05:36:14;;;;;;;13.13;10.10;;;13.70;99.90;;;;;;5064108;28;20119;-74
2023/05/08 05:38:40;;;;;;;13.10;11.70;;;13.80;99.90;;;;;;5061708;28;20035;-75
2023/05/08 05:41:06;;;;;;;12.73;11.38;;;13.40;99.90;;;;;;5034824;28;20061;-77
2023/05/08 05:43:32;;;;;;;11.48;9.18;;;13.50;99.90;;;;;;5088463;28;20071;-77
2023/05/08 05:46:06;;;;;;;11.90;10.65;;;13.80;99.90;;;;;;5092559;28;20040;-76
2023/05/08 05:48:32;;;;;;;15.93;11.07;;;13.80;99.90;;;;;;5072733;28;20048;-76
2023/05/08 05:50:58;;;;;;;12.82;10.48;;;13.50;99.90;;;;;;5080447;27;20039;-80
2023/05/08 05:53:24;;;;;;;12.63;10.32;;;13.70;99.90;;;;;;5082719;28;20507;-75
2023/05/08 05:55:49;;;;;;;13.85;12.25;;;14.20;99.90;;;;;;5102449;28;20074;-72
2023/05/08 05:58:15;;;;;;;12.45;9.50;;;13.90;99.90;;;;;;5105686;28;20502;-73
2023/05/08 06:00:42;;;;;;;12.15;10.95;;;13.80;99.90;;;;;;5082778;28;20087;-75
2023/05/08 06:03:12;;;;;;;13.10;10.50;;;13.90;99.90;;;;;;5065317;28;20046;-77
2023/05/08 06:05:39;;;;;;;12.85;11.00;;;14.10;99.90;;;;;;5090849;28;20067;-73
2023/05/08 06:08:06;;;;;;;13.50;12.07;;;14.10;99.90;;;;;;5122460;27;20039;-77
2023/05/08 06:10:32;;;;;;;11.93;10.38;;;13.80;99.90;;;;;;5107414;28;20369;-75
2023/05/08 06:12:57;;;;;;;11.60;10.25;;;14.30;99.90;;;;;;5101585;28;20055;-76
2023/05/08 06:15:23;;;;;;;12.80;11.07;;;14.00;99.90;;;;;;5064714;28;20054;-77
2023/05/08 06:17:49;;;;;;;14.23;11.68;;;14.50;99.90;;;;;;5054787;28;20044;-76
2023/05/08 06:20:15;;;;;;;13.98;11.25;;;14.30;99.90;;;;;;5104206;28;20036;-76
2023/05/08 06:22:41;;;;;;;14.90;11.82;;;14.30;99.90;;;;;;5056604;28;20044;-78
2023/05/08 06:25:08;;;;;;;12.68;11.13;;;14.20;99.90;;;;;;5093247;28;20131;-78
2023/05/08 06:27:34;;;;;;;12.60;11.30;;;14.70;99.90;;;;;;5081698;28;20057;-75
2023/05/08 06:30:00;;;;;;;13.18;11.05;;;14.60;99.90;;;;;;5093160;28;20202;-74
2023/05/08 06:32:26;;;;;;;14.32;11.30;;;15.00;99.90;;;;;;5043795;28;20075;-81
2023/05/08 06:34:52;;;;;;;12.35;11.05;;;14.70;99.90;;;;;;5079041;28;20071;-74
2023/05/08 06:37:18;;;;;;;14.68;12.40;;;14.90;99.90;;;;;;5079315;28;20035;-77
2023/05/08 06:39:44;;;;;;;15.23;12.63;;;15.00;99.90;;;;;;5056223;28;20034;-81
2023/05/08 06:42:09;;;;;;;13.15;11.75;;;14.80;99.90;;;;;;5102620;28;20050;-75
2023/05/08 06:44:35;;;;;;;12.23;10.40;;;15.20;99.90;;;;;;5055701;28;20048;-76
2023/05/08 06:47:01;;;;;;;13.10;11.70;;;15.00;99.90;;;;;;5049040;28;20085;-73
2023/05/08 06:49:27;;;;;;;12.45;10.88;;;14.80;99.90;;;;;;5060674;28;20610;-76
2023/05/08 06:51:53;;;;;;;13.48;11.95;;;14.80;99.90;;;;;;5062362;28;20118;-76
2023/05/08 06:54:19;;;;;;;12.73;11.43;;;14.80;99.90;;;;;;5075333;28;20118;-79
2023/05/08 06:56:45;;;;;;;14.40;12.23;;;14.70;99.90;;;;;;5067088;28;20040;-75
2023/05/08 06:59:10;;;;;;;12.57;11.25;;;15.20;99.90;;;;;;5061628;28;20036;-80
2023/05/08 07:01:36;;;;;;;14.80;11.93;;;15.20;99.90;;;;;;5102088;28;20043;-80
2023/05/08 07:04:03;;;;;;;14.48;11.48;;;15.40;99.90;;;;;;5050576;28;20131;-77
2023/05/08 07:06:30;;;;;;;16.35;12.02;;;15.30;99.90;;;;;;5053877;28;20134;-77
2023/05/08 07:08:56;;;;;;;15.95;12.30;;;15.50;99.90;;;;;;5096951;28;20051;-79
2023/05/08 07:11:22;;;;;;;15.98;11.65;;;15.60;99.90;;;;;;5071114;28;20403;-75
2023/05/08 07:13:48;;;;;;;15.50;11.80;;;15.60;99.90;;;;;;5071278;28;20484;-72
2023/05/08 07:16:18;;;;;;;13.98;11.13;;;15.50;99.90;;;;;;5100882;28;20088;-80
2023/05/08 07:18:46;;;;;;;13.50;11.77;;;15.40;99.90;;;;;;5086505;28;20464;-79
2023/05/08 07:21:14;;;;;;;12.50;10.95;;;15.50;99.90;;;;;;5088756;28;20053;-74
2023/05/08 07:23:43;;;;;;;13.30;11.60;;;15.80;99.90;;;;;;5069581;28;20130;-76
2023/05/08 07:26:10;;;;;;;14.18;11.93;;;15.60;99.90;;;;;;5062196;28;20100;-75
2023/05/08 07:28:35;;;;;;;12.95;11.57;;;15.60;99.90;;;;;;5080992;28;20101;-75
2023/05/08 07:31:06;;;;;;;13.05;11.40;;;15.80;99.90;;;;;;5106628;28;20471;-75
2023/05/08 07:33:32;;;;;;;14.68;11.00;;;15.60;99.90;;;;;;5074918;28;20573;-75
2023/05/08 07:35:59;;;;;;;13.30;11.02;;;16.20;99.90;;;;;;5081294;28;20028;-81
2023/05/08 07:38:25;;;;;;;13.82;10.75;;;16.20;99.90;;;;;;5058542;28;20036;-75
2023/05/08 07:40:52;;;;;;;11.93;10.50;;;16.30;99.90;;;;;;5068105;28;20081;-77
2023/05/08 07:43:17;;;;;;;13.65;10.90;;;16.20;99.90;;;;;;5059384;28;20055;-77
2023/05/08 07:45:43;;;;;;;11.50;10.27;;;16.30;99.90;;;;;;5099570;28;20032;-78
2023/05/08 07:48:10;;;;;;;12.57;10.68;;;16.20;99.90;;;;;;5072502;28;20128;-73
2023/05/08 07:50:36;;;;;;;12.30;10.68;;;16.80;99.90;;;;;;5061988;28;20500;-76
2023/05/08 07:53:02;;;;;;;12.30;10.88;;;16.50;99.90;;;;;;5047913;28;20070;-76
2023/05/08 07:55:27;;;;;;;12.82;10.90;;;17.60;99.90;;;;;;5086613;28;20043;-76
2023/05/08 07:57:57;;;;;;;12.65;11.10;;;15.10;99.90;;;;;;5060072;28;20032;-78
2023/05/08 08:00:26;;;;;;;13.93;11.57;;;16.70;99.90;;;;;;5074783;28;20048;-78
2023/05/08 08:02:52;;;;;;;11.18;9.98;;;16.90;99.90;;;;;;5075867;28;20043;-76
2023/05/08 08:05:18;;;;;;;15.77;11.75;;;17.00;99.90;;;;;;5061765;28;20044;-77
2023/05/08 08:07:44;;;;;;;11.40;10.20;;;16.80;99.90;;;;;;5068884;28;20381;-76
2023/05/08 08:10:10;;;;;;;13.00;11.50;;;16.90;99.90;;;;;;5082804;28;20034;-79
2023/05/08 08:12:36;;;;;;;12.15;10.88;;;17.40;99.90;;;;;;5059654;28;20127;-76
2023/05/08 08:15:02;;;;;;;13.20;11.48;;;17.30;99.90;;;;;;5061837;28;20115;-76
2023/05/08 08:17:27;;;;;;;11.95;10.75;;;17.70;99.90;;;;;;5062770;27;20101;-80
2023/05/08 08:19:53;;;;;;;12.05;10.80;;;17.30;99.90;;;;;;5089717;28;20050;-76
2023/05/08 08:22:19;;;;;;;14.40;11.45;;;17.60;99.90;;;;;;5104790;28;20135;-76
2023/05/08 08:24:45;;;;;;;16.40;10.75;;;17.20;99.90;;;;;;5079782;28;20040;-81
2023/05/08 08:27:11;;;;;;;15.30;11.30;;;17.40;99.90;;;;;;5098929;28;20044;-78
2023/05/08 08:29:37;;;;;;;13.65;11.30;;;17.40;99.90;;;;;;5107495;28;20043;-82
2023/05/08 08:32:03;;;;;;;12.45;11.07;;;17.50;99.90;;;;;;5087226;28;20054;-79
2023/05/08 08:34:28;;;;;;;11.93;10.55;;;17.60;99.90;;;;;;5076035;28;20050;-77
2023/05/08 08:36:54;;;;;;;12.75;10.80;;;18.00;99.90;;;;;;5057588;28;20040;-80
2023/05/08 08:39:20;;;;;;;12.68;11.38;;;17.90;99.90;;;;;;5105356;28;20039;-81
2023/05/08 08:41:46;;;;;;;11.50;10.40;;;18.30;99.90;;;;;;5075134;28;20051;-78
2023/05/08 08:44:11;;;;;;;12.88;11.45;;;18.30;99.90;;;;;;5093279;28;20480;-78
2023/05/08 08:46:43;;;;;;;12.60;11.25;;;18.40;99.90;;;;;;5075544;28;20036;-79
2023/05/08 08:49:11;;;;;;;13.57;11.60;;;18.40;99.90;;;;;;5092715;27;20089;-80
2023/05/08 08:51:48;;;;;;;12.25;9.90;;;18.00;99.90;;;;;;5075684;28;20051;-77
2023/05/08 08:54:19;;;;;;;13.13;11.27;;;18.20;99.90;;;;;;5073738;28;20081;-76
2023/05/08 08:56:48;;;;;;;13.15;11.75;;;18.20;99.90;;;;;;5091323;27;20135;-76
2023/05/08 08:59:16;;;;;;;13.10;11.80;;;18.50;99.90;;;;;;5101769;28;20027;-79
2023/05/08 09:01:46;;;;;;;13.02;11.73;;;18.50;99.90;;;;;;5092652;28;20048;-81
2023/05/08 09:04:12;;;;;;;11.95;10.70;;;18.50;99.90;;;;;;5120672;27;20036;-78
2023/05/08 09:06:40;;;;;;;13.05;11.73;;;18.60;99.90;;;;;;5092645;28;20039;-77
2023/05/08 09:10:30;;;;;;;12.73;11.25;;;18.80;99.90;;;;;;5122050;27;20125;-75
2023/05/08 09:12:56;;;;;;;13.30;11.90;;;18.80;99.90;;;;;;5083522;28;20499;-74
2023/05/08 09:15:22;;;;;;;14.18;12.77;;;18.90;99.90;;;;;;5082610;28;20050;-77
2023/05/08 09:17:48;;;;;;;14.52;11.93;;;18.90;99.90;;;;;;5082903;28;20043;-80
2023/05/08 09:20:15;;;;;;;12.68;11.48;;;19.20;99.90;;;;;;5070205;28;20043;-78
2023/05/08 09:22:44;;;;;;;13.15;11.70;;;18.90;99.90;;;;;;5079964;28;20054;-80
2023/05/08 09:25:10;;;;;;;13.38;12.07;;;19.40;99.90;;;;;;5078680;28;20061;-73
2023/05/08 09:27:36;;;;;;;13.65;12.23;;;19.50;99.90;;;;;;5095547;28;20039;-76
2023/05/08 09:30:09;;;;;;;13.13;11.82;;;19.30;99.90;;;;;;5077508;28;20093;-75
2023/05/08 09:32:37;;;;;;;13.87;12.17;;;19.20;99.90;;;;;;5079065;28;20097;-79
2023/05/08 09:35:04;;;;;;;12.85;11.60;;;19.60;99.90;;;;;;5058396;28;20039;-73
2023/05/08 09:37:30;;;;;;;14.20;12.70;;;19.70;99.90;;;;;;5098863;28;20627;-75
2023/05/08 09:40:13;;;;;;;12.85;11.57;;;20.70;99.90;;;;;;5079519;28;20671;-75
2023/05/08 09:42:39;;;;;;;13.27;11.98;;;21.20;99.90;;;;;;5104227;28;20036;-73
2023/05/08 09:45:06;;;;;;;14.45;11.85;;;21.10;99.90;;;;;;5091219;28;20115;-80
2023/05/08 09:47:33;;;;;;;12.60;11.07;;;21.10;99.90;;;;;;5075532;28;20053;-75
2023/05/08 09:50:01;;;;;;;13.25;11.80;;;21.40;99.90;;;;;;5103847;28;20062;-78
2023/05/08 09:52:31;;;;;;;14.15;12.80;;;21.70;99.90;;;;;;5091145;28;20043;-76
2023/05/08 09:54:58;;;;;;;13.98;12.68;;;21.50;99.90;;;;;;5086196;28;20039;-77
2023/05/08 09:57:28;;;;;;;13.35;12.15;;;21.70;99.90;;;;;;5095453;28;20032;-77
2023/05/08 10:00:21;;;;;;;13.98;11.98;;;21.50;99.90;;;;;;5096929;28;20031;-78
2023/05/08 10:03:13;;;;;;;14.25;12.85;;;21.90;99.90;;;;;;5072610;28;20420;-77
2023/05/08 10:05:39;;;;;;;13.18;11.88;;;21.60;99.90;;;;;;5086923;28;20051;-82
2023/05/08 10:08:28;;;;;;;13.77;12.23;;;21.90;99.90;;;;;;5090049;28;20119;-85
2023/05/08 10:11:15;;;;;;;14.30;11.98;;;21.80;99.90;;;;;;5080837;28;20664;-79
2023/05/08 10:13:45;;;;;;;12.68;11.43;;;22.00;99.90;;;;;;5086442;28;20423;-81
2023/05/08 10:16:15;;;;;;;13.55;12.15;;;22.10;99.90;;;;;;5066490;28;20082;-79
2023/05/08 10:18:48;;;;;;;14.27;12.73;;;22.40;99.90;;;;;;5066197;28;20032;-81
2023/05/08 10:21:15;;;;;;;13.48;12.27;;;22.50;99.90;;;;;;5054964;28;20029;-77
2023/05/08 10:23:47;;;;;;;13.65;12.32;;;22.90;99.90;;;;;;5050993;28;20036;-83
2023/05/08 10:26:17;;;;;;;13.30;11.93;;;22.70;99.90;;;;;;5065267;28;20037;-79
2023/05/08 10:28:56;;;;;;;14.10;12.80;;;23.10;99.90;;;;;;5043027;28;20144;-81
2023/05/08 10:31:30;;;;;;;14.18;12.88;;;22.80;99.90;;;;;;5048168;28;20044;-81
2023/05/08 10:33:57;;;;;;;11.82;10.73;;;22.90;99.90;;;;;;5047386;28;20064;-80
2023/05/08 10:36:24;;;;;;;14.25;12.77;;;22.70;99.90;;;;;;5068626;28;20094;-85
2023/05/08 10:38:51;;;;;;;13.27;11.88;;;22.90;99.90;;;;;;5065058;28;20047;-81
2023/05/08 10:41:19;;;;;;;14.20;12.70;;;22.90;99.90;;;;;;5049566;28;20036;-81
2023/05/08 10:43:45;;;;;;;14.23;12.85;;;23.10;99.90;;;;;;5051417;28;20041;-82
2023/05/08 10:46:49;;;;;;;12.43;11.00;;;23.00;99.90;;;;;;5045168;28;20634;-81
2023/05/08 10:49:28;;;;;;;14.48;13.07;;;22.90;99.90;;;;;;5049030;28;20076;-80
2023/05/08 10:52:16;;;;;;;17.45;15.77;;;23.10;99.90;;;;;;5070164;28;20048;-87
2023/05/08 10:55:03;;;;;;;15.20;13.50;;;22.70;99.90;;;;;;5066023;28;20410;-83
2023/05/08 10:57:30;;;;;;;14.48;13.07;;;23.60;99.90;;;;;;5047462;28;20090;-84
2023/05/08 10:59:56;;;;;;;14.77;13.38;;;23.60;99.90;;;;;;5063694;28;20044;-81
2023/05/08 11:02:30;;;;;;;14.75;13.32;;;23.70;99.90;;;;;;5034995;28;20127;-85
2023/05/08 11:05:19;;;;;;;12.38;11.27;;;24.00;99.90;;;;;;5067122;28;20059;-81
2023/05/08 11:07:58;;;;;;;14.18;12.88;;;24.00;99.90;;;;;;5058226;28;20075;-79
2023/05/08 11:10:39;;;;;;;14.30;13.00;;;24.00;99.90;;;;;;5071528;28;20048;-80
2023/05/08 11:13:06;;;;;;;13.68;12.15;;;24.10;99.90;;;;;;5060275;28;20059;-83
2023/05/08 11:15:40;;;;;;;16.73;14.23;;;24.60;99.90;;;;;;5045024;28;20607;-84
2023/05/08 11:18:10;;;;;;;15.77;14.25;;;24.20;99.90;;;;;;5059373;28;20043;-82
2023/05/08 11:20:54;;;;;;;14.48;13.18;;;24.30;99.90;;;;;;5062935;28;20078;-80
2023/05/08 11:23:28;;;;;;;15.00;13.60;;;24.40;99.90;;;;;;5071164;28;20048;-81
2023/05/08 11:26:04;;;;;;;13.23;11.93;;;24.20;99.90;;;;;;5051875;28;20032;-83
2023/05/08 11:28:37;;;;;;;15.23;13.75;;;24.10;99.90;;;;;;5051227;28;20436;-83
2023/05/08 11:31:05;;;;;;;23.47;16.33;;;24.10;99.90;;;;;;5066114;28;20036;-83
2023/05/08 11:33:36;;;;;;;16.10;14.60;;;24.30;99.90;;;;;;5073855;28;20393;-81
2023/05/08 11:36:24;;;;;;;15.07;13.40;;;24.40;99.90;;;;;;5047906;28;20047;-82
2023/05/08 11:39:14;;;;;;;13.52;12.32;;;24.70;99.90;;;;;;5075836;28;20105;-83
2023/05/08 11:41:43;;;;;;;17.17;14.88;;;25.00;99.90;;;;;;5079458;28;20043;-84
2023/05/08 11:44:16;;;;;;;16.17;14.65;;;24.70;99.90;;;;;;5063192;28;20032;-83
2023/05/08 11:46:52;;;;;;;16.70;15.10;;;24.50;99.90;;;;;;5081950;28;20125;-84
2023/05/08 11:49:20;;;;;;;15.15;13.40;;;24.50;99.90;;;;;;5060053;28;20039;-82
2023/05/08 11:51:48;;;;;;;14.18;12.77;;;25.00;99.90;;;;;;5064561;28;20041;-83
2023/05/08 11:54:17;;;;;;;14.52;13.07;;;24.90;99.90;;;;;;5078618;28;20118;-85
2023/05/08 11:56:46;;;;;;;14.90;13.40;;;24.50;99.90;;;;;;5068274;28;20067;-80
2023/05/08 11:59:12;;;;;;;17.27;15.68;;;24.80;99.90;;;;;;5054824;28;20890;-84
2023/05/08 12:01:38;;;;;;;15.35;13.95;;;24.50;99.90;;;;;;5064471;28;20073;-85
2023/05/08 12:04:06;;;;;;;15.02;13.18;;;24.80;99.90;;;;;;5073673;28;20037;-84
2023/05/08 12:06:34;;;;;;;13.52;12.23;;;25.00;99.90;;;;;;5071630;28;20044;-83
2023/05/08 12:09:04;;;;;;;15.00;13.70;;;24.90;99.90;;;;;;5064463;28;20056;-83
2023/05/08 12:11:31;;;;;;;17.38;15.77;;;25.00;99.90;;;;;;5042984;28;20040;-83
2023/05/08 12:13:57;;;;;;;16.48;14.95;;;24.60;99.90;;;;;;5068875;28;20043;-87
2023/05/08 12:16:24;;;;;;;18.40;14.40;;;25.10;99.90;;;;;;5057865;28;20047;-84
2023/05/08 12:18:51;;;;;;;15.40;13.80;;;25.10;99.90;;;;;;5063117;28;20055;-85
2023/05/08 12:21:18;;;;;;;17.10;14.50;;;25.30;99.90;;;;;;5078073;28;20063;-85
2023/05/08 12:23:44;;;;;;;14.68;13.27;;;25.30;99.90;;;;;;5046162;28;20418;-83
2023/05/08 12:26:11;;;;;;;15.38;14.05;;;25.40;99.90;;;;;;5048211;28;20069;-85
2023/05/08 12:28:39;;;;;;;16.33;14.88;;;25.60;99.90;;;;;;5072126;28;20139;-87
2023/05/08 12:31:05;;;;;;;15.80;14.30;;;24.90;99.90;;;;;;5072404;28;20119;-85
2023/05/08 12:33:32;;;;;;;14.73;13.23;;;25.60;97.20;;;;;;5047835;28;20119;-84
2023/05/08 12:35:59;;;;;;;16.63;15.15;;;25.30;99.90;;;;;;5042056;28;20036;-85
2023/05/08 12:38:26;;;;;;;15.77;14.38;;;25.10;99.90;;;;;;5060504;28;20064;-82
2023/05/08 12:40:56;;;;;;;14.40;12.95;;;25.30;99.90;;;;;;5065030;28;20097;-84